Flight Track Log - Related Links

Times and Time Zones

All times are in EDT time to prevent confusion due to time zone crossing. See the UAL3818 flight status page for this flight to view local times or setup timezone preferences in your user account.

Time Position Orientation Groundspeed Altitude Reporting Facility
EDT Latitude Longitude Course Direction KTS MPH feet Rate Location/Type
Sun 04:25:02 PM 40.7000 -74.2167 316° Northwest 172 198 1,600  Level New York TRACON
Sun 04:26:02 PM 40.7167 -74.2833 288° West 226 260 3,300 2,200 Climbing New York TRACON
Sun 04:27:00 PM 40.8955 -74.4139 319° Northwest  Level FlightAware Approximate
Sun 04:27:02 PM 40.7667 -74.3333 323° Northwest 223 257 6,000  Level New York TRACON
Sun 04:28:00 PM 40.9676 -74.4962 319° Northwest  Level FlightAware Approximate
Sun 04:28:53 PM 40.8569 -74.4283 321° Northwest 249 287 10,300  Level New York Center
Sun 04:29:00 PM 41.0376 -74.5816 316° Northwest  Level FlightAware Approximate
Sun 04:29:53 PM 40.9158 -74.4836 325° Northwest 255 293 11,400  Level New York Center
Sun 04:30:00 PM 41.1060 -74.6695 316° Northwest  Level FlightAware Approximate
Sun 04:30:53 PM 40.9825 -74.5506 323° Northwest 289 333 12,800  Level New York Center
Sun 04:31:53 PM 41.0531 -74.6150 325° Northwest 299 344 14,100 1,500 Climbing New York Center
Sun 04:32:53 PM 41.1239 -74.6850 323° Northwest 311 358 15,800 1,500 Climbing New York Center
Sun 04:33:53 PM 41.1725 -74.7817 304° West 311 358 17,100 1,150 Climbing New York Center
Sun 04:34:53 PM 41.2153 -74.8778 301° West 328 377 18,100 1,100 Climbing New York Center
Sun 04:35:53 PM 41.2614 -74.9856 300° West 333 383 19,300 950 Climbing New York Center
Sun 04:36:53 PM 41.3114 -75.1019 300° West 345 397 20,000 350 Climbing New York Center
Sun 04:37:53 PM 41.3631 -75.2214 300° West 357 411 20,000  Level New York Center
Sun 04:38:53 PM 41.4147 -75.3408 300° West 370 426 20,000 450 Level New York Center
Sun 04:39:53 PM 41.4992 -75.4214 324° Northwest 362 417 20,900 950 Climbing New York Center
Sun 04:40:53 PM 41.5856 -75.4997 326° Northwest 367 422 21,900 1,050 Climbing New York Center
Sun 04:41:53 PM 41.6700 -75.5722 327° Northwest 367 422 23,000 1,050 Climbing New York Center
Sun 04:42:53 PM 41.7194 -75.6925 299° West 354 407 24,000 1,100 Climbing New York Center
Sun 04:43:53 PM 41.7619 -75.8208 294° West 366 421 25,200 1,300 Climbing New York Center
Sun 04:44:53 PM 41.8003 -75.9461 292° West 366 421 26,600 1,300 Climbing New York Center
Sun 04:45:53 PM 41.8278 -76.0736 286° West 366 421 27,800 1,150 Climbing New York Center
Sun 04:46:53 PM 41.8556 -76.2011 286° West 361 415 28,900 1,050 Climbing New York Center
Sun 04:47:53 PM 41.8828 -76.3286 286° West 361 415 29,900 1,050 Climbing New York Center
Sun 04:48:53 PM 41.9144 -76.4539 289° West 361 415 31,000 1,105 Climbing New York Center
Sun 04:51:03 PM 41.9775 -76.7533 286° West 373 429 33,400 947 Climbing Cleveland Center
Sun 04:52:03 PM 42.0047 -76.8831 286° West 373 429 34,000 300 Climbing Cleveland Center
Sun 04:53:03 PM 42.0339 -77.0186 286° West 373 429 34,000  Level Cleveland Center
Sun 04:54:03 PM 42.0653 -77.1567 287° West 373 429 34,000  Level Cleveland Center
Sun 04:55:03 PM 42.0944 -77.2950 286° West 379 436 34,000  Level Cleveland Center
Sun 04:56:03 PM 42.1233 -77.4336 286° West 379 436 34,000  Level Cleveland Center
Sun 04:57:03 PM 42.1519 -77.5667 286° West 379 436 34,000  Level Cleveland Center
Sun 04:58:03 PM 42.1803 -77.7025 286° West 374 430 34,000  Level Cleveland Center
Sun 04:59:03 PM 42.2064 -77.8331 285° West 374 430 34,000  Level Cleveland Center
Sun 05:00:03 PM 42.2347 -77.9722 285° West 374 430 34,000  Level Cleveland Center
Sun 05:01:03 PM 42.2628 -78.1114 285° West 374 430 34,000  Level Cleveland Center
Sun 05:02:03 PM 42.2906 -78.2450 286° West 374 430 34,000  Level Cleveland Center
Sun 05:03:03 PM 42.3183 -78.3789 286° West 374 430 34,000  Level Cleveland Center
Sun 05:04:03 PM 42.3439 -78.5183 284° West 374 430 34,000  Level Cleveland Center
Sun 05:05:03 PM 42.3711 -78.6525 285° West 374 430 34,000  Level Cleveland Center
Sun 05:06:03 PM 42.3983 -78.7894 285° West 374 430 34,000  Level Cleveland Center
Sun 05:07:03 PM 42.4233 -78.9264 284° West 374 430 34,000  Level Cleveland Center
Sun 05:08:03 PM 42.4481 -79.0608 284° West 374 430 34,000  Level Cleveland Center
Sun 05:09:03 PM 42.4747 -79.1953 285° West 374 430 34,000  Level Cleveland Center
Sun 05:10:03 PM 42.4972 -79.3328 283° West 374 430 34,000  Level Cleveland Center
Sun 05:11:03 PM 42.5028 -79.4736 273° West 374 430 34,000  Level Cleveland Center
Sun 05:12:03 PM 42.5103 -79.6200 274° West 374 430 34,000  Level Cleveland Center
Sun 05:13:03 PM 42.5156 -79.7578 273° West 380 437 34,000  Level Cleveland Center
Sun 05:14:03 PM 42.5228 -79.9014 274° West 380 437 34,000  Level Cleveland Center
Sun 05:15:03 PM 42.5256 -80.0422 272° West 385 443 34,000  Level Cleveland Center
Sun 05:16:03 PM 42.5344 -80.1858 275° West 385 443 34,000  Level Cleveland Center
Sun 05:17:03 PM 42.5369 -80.3239 271° West 380 437 34,000  Level Cleveland Center
Sun 05:18:03 PM 42.5456 -80.4706 275° West 385 443 34,000  Level Cleveland Center
Sun 05:19:03 PM 42.5497 -80.6086 272° West 378 435 34,000  Level Cleveland Center
Sun 05:20:03 PM 42.5539 -80.7494 272° West 378 435 34,000 -200 Level Cleveland Center
Sun 05:21:03 PM 42.5597 -80.8906 273° West 383 441 33,600 -700 Descending Cleveland Center
Sun 05:22:03 PM 42.5678 -81.0286 275° West 377 434 32,600 -800 Descending Cleveland Center
Sun 05:23:03 PM 42.5817 -81.1725 278° West 377 434 32,000 -300 Descending Cleveland Center
Sun 05:24:03 PM 42.5914 -81.2994 276° West 382 440 32,000  Level Cleveland Center
Sun 05:25:03 PM 42.6028 -81.4406 276° West 387 445 32,000  Level Cleveland Center
Sun 05:26:03 PM 42.6164 -81.5875 277° West 393 452 32,000  Level Cleveland Center
Sun 05:27:03 PM 42.6275 -81.7289 276° West 388 447 32,000  Level Cleveland Center
Sun 05:28:03 PM 42.6406 -81.8786 277° West 388 447 32,000  Level Cleveland Center
Sun 05:29:03 PM 42.6514 -82.0228 276° West 393 452 32,000 -50 Level Cleveland Center
Sun 05:30:03 PM 42.6639 -82.1756 276° West 393 452 31,900 -650 Descending Cleveland Center
Sun 05:31:03 PM 42.6742 -82.3200 276° West 393 452 30,700 -1,350 Descending Cleveland Center
Sun 05:32:03 PM 42.6867 -82.4586 277° West 388 447 29,200 -1,450 Descending Cleveland Center
Sun 05:33:03 PM 42.6967 -82.6003 276° West 388 447 27,800 -1,400 Descending Cleveland Center
Sun 05:34:03 PM 42.7067 -82.7419 276° West 388 447 26,400 -1,400 Descending Cleveland Center
Sun 05:35:03 PM 42.7183 -82.8919 276° West 388 447 25,000 -1,400 Descending Cleveland Center
Sun 05:36:03 PM 42.7278 -83.0450 275° West 400 460 23,600 -1,450 Descending Cleveland Center
Sun 05:37:03 PM 42.7392 -83.1953 276° West 407 468 22,100 -800 Descending Cleveland Center
Sun 05:38:03 PM 42.7481 -83.3428 275° West 407 468 22,000 -50 Descending Cleveland Center
Sun 05:39:03 PM 42.7592 -83.4817 276° West 393 452 22,000  Level Cleveland Center
Sun 05:40:03 PM 42.7681 -83.6294 275° West 388 447 22,000 -300 Level Cleveland Center
Sun 05:41:03 PM 42.7786 -83.7769 276° West 388 447 21,400 -1,150 Descending Cleveland Center
Sun 05:42:03 PM 42.7889 -83.9275 275° West 393 452 19,700 -1,750 Descending Cleveland Center
Sun 05:43:03 PM 42.7972 -84.0694 275° West 387 445 17,900 -1,650 Descending Cleveland Center
Sun 05:44:03 PM 42.8056 -84.2058 275° West 382 440 16,400 -1,600 Descending Cleveland Center
Sun 05:45:03 PM 42.8178 -84.3453 277° West 377 434 14,700 -1,650 Descending Cleveland Center
Sun 05:46:03 PM 42.8194 -84.4842 271° West 377 434 13,100 -1,500 Descending Cleveland Center
Sun 05:46:31 PM 42.8278 -84.5389 282° West 362 417 12,500 -1,333 Descending Chicago Center
Sun 05:47:33 PM 42.8356 -84.6708 275° West 354 407 11,100 -1,415 Descending Chicago Center
Sun 05:48:34 PM 42.8431 -84.8017 275° West 298 343 9,600 -1,415 Descending Chicago Center
Sun 05:49:36 PM 42.8453 -84.9022 272° West 274 315 8,200 -823 Descending Chicago Center
Sun 05:50:38 PM 42.8361 -85.0050 263° West 272 313 7,900 -634 Descending Chicago Center
Sun 05:51:39 PM 42.8292 -85.1069 265° West 272 313 6,900 -976 Descending Chicago Center
Sun 05:52:41 PM 42.8242 -85.2075 266° West 268 308 5,900 -919 Descending Chicago Center
Sun 05:53:43 PM 42.8194 -85.3067 266° West 265 305 5,000 -439 Descending Chicago Center
Sun 05:54:44 PM 42.8144 -85.4036 266° West 258 297 5,000  Level Chicago Center
Sun 05:55:46 PM 42.8039 -85.4964 261° West 252 290 5,000 -341 Level Chicago Center
Sun 05:56:47 PM 42.7867 -85.5989 257° West 236 272 4,300 -780 Descending Chicago Center
Sun 05:57:49 PM 42.8167 -85.6542 307° West 238 274 3,400 -968 Descending Chicago Center
Sun 05:58:51 PM 42.8647 -85.6336 17° North 208 239 2,300 -1,065 Descending Chicago Center

Login

Don't have an account? Register now (free) for customized features, flight alerts, and more!